createdAt,value
2023-01-17T00:02:17.380Z,98499.28
2023-01-17T00:05:03.616Z,98482.63
2023-01-17T00:07:50.033Z,98486.88
2023-01-17T00:10:19.900Z,98489.59
2023-01-17T00:12:56.201Z,98490.38
2023-01-17T00:15:24.599Z,98475.06
2023-01-17T00:17:53.115Z,98474.66
2023-01-17T00:20:47.705Z,98480.16
2023-01-17T00:23:42.691Z,98484.56
2023-01-17T00:26:14.337Z,98482.84
2023-01-17T00:28:42.143Z,98496.84
2023-01-17T00:31:11.028Z,98505.56
2023-01-17T00:33:38.417Z,98493.13
2023-01-17T00:36:07.127Z,98502.53
2023-01-17T00:38:36.856Z,98508.44
2023-01-17T00:41:10.094Z,98497.56
2023-01-17T00:43:56.308Z,98501.66
2023-01-17T00:46:42.314Z,98478.28
2023-01-17T00:49:28.608Z,98487.47
2023-01-17T00:52:14.494Z,98490.78
2023-01-17T00:55:00.451Z,98492.63
2023-01-17T00:57:46.225Z,98506.88
2023-01-17T01:00:32.678Z,98498.84
2023-01-17T01:03:18.484Z,98493.88
2023-01-17T01:06:04.523Z,98499.50
2023-01-17T01:08:50.151Z,98509.31
2023-01-17T01:11:39.575Z,98509.91
2023-01-17T01:14:28.789Z,98506.25
2023-01-17T01:17:14.672Z,98507.97
2023-01-17T01:20:00.706Z,98517.13
2023-01-17T01:22:46.714Z,98509.91
2023-01-17T01:25:32.642Z,98512.91
2023-01-17T01:28:36.791Z,98525.59
2023-01-17T01:31:23.475Z,98522.75
2023-01-17T01:33:53.043Z,98529.81
2023-01-17T01:36:21.342Z,98536.94
2023-01-17T01:38:50.231Z,98546.81
2023-01-17T01:41:17.745Z,98550.53
2023-01-17T01:43:48.066Z,98555.44
2023-01-17T01:46:27.343Z,98558.06
2023-01-17T01:49:07.939Z,98555.38
2023-01-17T01:51:40.127Z,98559.38
2023-01-17T01:54:16.328Z,98557.91
2023-01-17T01:56:45.191Z,98562.75
2023-01-17T01:59:15.896Z,98555.09
2023-01-17T02:01:43.320Z,98549.38
2023-01-17T02:04:11.631Z,98546.19
2023-01-17T02:06:43.808Z,98544.72
2023-01-17T02:09:12.739Z,98538.38
2023-01-17T02:11:40.907Z,98538.38
2023-01-17T02:14:14.539Z,98537.47
2023-01-17T02:16:48.526Z,98538.19
2023-01-17T02:19:34.494Z,98537.31
2023-01-17T02:22:38.890Z,98527.16
2023-01-17T02:25:19.542Z,98537.78
2023-01-17T02:27:55.704Z,98521.16
2023-01-17T02:30:32.942Z,98528.78
2023-01-17T02:33:35.717Z,98519.81
2023-01-17T02:36:10.456Z,98512.59
2023-01-17T02:39:05.999Z,98510.88
2023-01-17T02:41:41.680Z,98510.88
2023-01-17T02:44:10.626Z,98509.72
2023-01-17T02:47:36.702Z,98503.69
2023-01-17T02:50:13.730Z,98497.69
2023-01-17T02:53:12.197Z,98502.19
2023-01-17T02:55:58.099Z,98496.75
2023-01-17T02:58:40.980Z,98487.59
2023-01-17T03:01:20.666Z,98487.25
2023-01-17T03:03:54.665Z,98493.19
2023-01-17T03:06:27.440Z,98480.91
2023-01-17T03:08:54.774Z,98464.28
2023-01-17T03:11:22.250Z,98459.19
2023-01-17T03:13:54.765Z,98464.88
2023-01-17T03:16:23.392Z,98465.72
2023-01-17T03:18:50.882Z,98456.09
2023-01-17T03:21:18.179Z,98447.59
2023-01-17T03:23:45.500Z,98448.63
2023-01-17T03:26:13.658Z,98442.31
2023-01-17T03:28:41.391Z,98453.97
2023-01-17T03:31:08.749Z,98457.69
2023-01-17T03:33:36.069Z,98442.78
2023-01-17T03:36:03.731Z,98431.38
2023-01-17T03:38:31.106Z,98435.81
2023-01-17T03:40:58.461Z,98446.25
2023-01-17T03:43:25.838Z,98444.66
2023-01-17T03:46:05.495Z,98459.56
2023-01-17T03:48:33.434Z,98464.06
2023-01-17T03:51:00.854Z,98467.63
2023-01-17T03:53:28.221Z,98466.53
2023-01-17T03:55:55.593Z,98457.00
2023-01-17T03:58:23.000Z,98456.06
2023-01-17T04:00:50.436Z,98456.81
2023-01-17T04:03:17.820Z,98467.97
2023-01-17T04:05:45.355Z,98471.81
2023-01-17T04:08:12.713Z,98471.66
2023-01-17T04:10:40.071Z,98459.50
2023-01-17T04:13:07.417Z,98457.47
2023-01-17T04:15:34.924Z,98458.53
2023-01-17T04:18:04.470Z,98447.59
2023-01-17T04:20:34.802Z,98445.19
2023-01-17T04:23:02.716Z,98442.09
2023-01-17T04:25:31.029Z,98450.22
2023-01-17T04:28:00.292Z,98452.25
2023-01-17T04:30:28.894Z,98452.88
2023-01-17T04:32:56.818Z,98445.56
2023-01-17T04:35:24.318Z,98444.50
2023-01-17T04:37:52.854Z,98457.69
2023-01-17T04:40:20.482Z,98448.91
2023-01-17T04:42:48.412Z,98440.31
2023-01-17T04:45:16.132Z,98439.84
2023-01-17T04:47:43.651Z,98429.66
2023-01-17T04:50:11.751Z,98431.06
2023-01-17T04:52:39.180Z,98433.47
2023-01-17T04:55:07.115Z,98437.91
2023-01-17T04:57:34.566Z,98453.38
2023-01-17T05:00:01.981Z,98448.38
2023-01-17T05:02:29.518Z,98458.22
2023-01-17T05:04:56.832Z,98431.66
2023-01-17T05:07:24.360Z,98453.81
2023-01-17T05:09:51.641Z,98449.47
2023-01-17T05:12:18.989Z,98446.31
2023-01-17T05:14:46.326Z,98448.91
2023-01-17T05:17:13.759Z,98445.78
2023-01-17T05:19:41.162Z,98434.97
2023-01-17T05:22:15.368Z,98433.38
2023-01-17T05:24:44.920Z,98436.19
2023-01-17T05:27:13.513Z,98420.72
2023-01-17T05:29:41.296Z,98422.53
2023-01-17T05:32:09.003Z,98431.63
2023-01-17T05:34:36.347Z,98428.06
2023-01-17T05:37:03.734Z,98418.06
2023-01-17T05:39:31.224Z,98426.41
2023-01-17T05:41:59.588Z,98431.44
2023-01-17T05:44:27.769Z,98429.69
2023-01-17T05:46:56.390Z,98436.88
2023-01-17T05:49:24.150Z,98434.38
2023-01-17T05:51:54.735Z,98434.38
2023-01-17T05:54:22.291Z,98424.81
2023-01-17T05:56:49.656Z,98418.63
2023-01-17T05:59:28.597Z,98428.34
2023-01-17T06:02:03.514Z,98420.72
2023-01-17T06:04:31.014Z,98414.50
2023-01-17T06:06:58.446Z,98427.53
2023-01-17T06:09:25.743Z,98430.03
2023-01-17T06:11:53.056Z,98405.59
2023-01-17T06:14:20.748Z,98406.38
2023-01-17T06:16:48.067Z,98407.34
2023-01-17T06:19:15.742Z,98408.75
2023-01-17T06:21:43.080Z,98396.75
2023-01-17T06:24:10.459Z,98406.44
2023-01-17T06:26:37.801Z,98394.53
2023-01-17T06:29:05.219Z,98380.16
2023-01-17T06:31:32.622Z,98393.66
2023-01-17T06:34:03.326Z,98386.19
2023-01-17T06:36:32.764Z,98382.44
2023-01-17T06:39:00.153Z,98377.03
2023-01-17T06:41:27.714Z,98359.81
2023-01-17T06:43:56.132Z,98339.72
2023-01-17T06:46:23.620Z,98329.88
2023-01-17T06:48:51.005Z,98338.00
2023-01-17T06:51:18.516Z,98341.91
2023-01-17T06:53:48.332Z,98334.69
2023-01-17T06:56:15.828Z,98336.19
2023-01-17T06:58:43.205Z,98364.75
2023-01-17T07:01:13.050Z,98356.91
2023-01-17T07:03:40.611Z,98341.38
2023-01-17T07:06:09.639Z,98376.38
2023-01-17T07:08:37.521Z,98380.28
2023-01-17T07:11:07.930Z,98391.09
2023-01-17T07:13:36.660Z,98387.53
2023-01-17T07:16:05.490Z,98385.50
2023-01-17T07:18:34.132Z,98379.16
2023-01-17T07:21:01.642Z,98377.19
2023-01-17T07:23:29.052Z,98357.88
2023-01-17T07:25:59.051Z,98380.47
2023-01-17T07:28:28.262Z,98375.91
2023-01-17T07:30:55.569Z,98376.31
2023-01-17T07:33:23.168Z,98378.03
2023-01-17T07:35:50.650Z,98366.41
2023-01-17T07:38:19.739Z,98357.66
2023-01-17T07:40:47.192Z,98352.38
2023-01-17T07:43:14.771Z,98361.84
2023-01-17T07:45:43.585Z,98354.16
2023-01-17T07:48:11.900Z,98340.63
2023-01-17T07:50:39.374Z,98334.69
2023-01-17T07:53:06.737Z,98319.00
2023-01-17T07:55:34.057Z,98310.97
2023-01-17T07:58:03.075Z,98325.31
2023-01-17T08:00:30.808Z,98332.19
2023-01-17T08:02:59.666Z,98318.84
2023-01-17T08:05:28.203Z,98312.88
2023-01-17T08:07:55.486Z,98322.41
2023-01-17T08:10:23.050Z,98315.75
2023-01-17T08:12:50.633Z,98305.75
2023-01-17T08:15:18.627Z,98297.22
2023-01-17T08:17:53.156Z,98307.72
2023-01-17T08:20:21.461Z,98309.34
2023-01-17T08:22:48.713Z,98308.94
2023-01-17T08:25:16.024Z,98290.66
2023-01-17T08:27:43.350Z,98291.91
2023-01-17T08:30:11.220Z,98270.22
2023-01-17T08:32:41.171Z,98292.69
2023-01-17T08:35:09.172Z,98286.03
2023-01-17T08:37:37.850Z,98279.25
2023-01-17T08:40:06.021Z,98283.97
2023-01-17T08:42:39.332Z,98276.13
2023-01-17T08:45:43.568Z,98279.09
2023-01-17T08:48:11.213Z,98276.91
2023-01-17T08:50:38.682Z,98262.28
2023-01-17T08:53:06.344Z,98280.28
2023-01-17T08:55:37.791Z,98269.69
2023-01-17T08:58:05.123Z,98269.00
2023-01-17T09:00:32.654Z,98265.41
2023-01-17T09:03:01.355Z,98249.69
2023-01-17T09:05:28.819Z,98247.50
2023-01-17T09:07:56.775Z,98247.72
2023-01-17T09:10:24.097Z,98247.97
2023-01-17T09:13:09.924Z,98255.19
2023-01-17T09:15:37.358Z,98271.00
2023-01-17T09:18:04.760Z,98248.38
2023-01-17T09:20:32.139Z,98259.22
2023-01-17T09:23:03.957Z,98256.28
2023-01-17T09:25:31.287Z,98268.16
2023-01-17T09:27:58.747Z,98260.19
2023-01-17T09:30:26.168Z,98257.28
2023-01-17T09:32:56.549Z,98249.53
2023-01-17T09:35:23.976Z,98270.09
2023-01-17T09:37:51.770Z,98264.88
2023-01-17T09:40:23.013Z,98252.72
2023-01-17T09:42:58.299Z,98269.22
2023-01-17T09:45:34.380Z,98271.41
2023-01-17T09:48:09.258Z,98269.38
2023-01-17T09:50:44.424Z,98273.56
2023-01-17T09:53:20.895Z,98255.28
2023-01-17T09:55:56.272Z,98256.81
2023-01-17T09:58:29.584Z,98244.63
2023-01-17T10:01:27.851Z,98236.56
2023-01-17T10:04:17.919Z,98228.88
2023-01-17T10:06:57.331Z,98222.94
2023-01-17T10:09:46.370Z,98220.97
2023-01-17T10:13:07.763Z,98206.78
2023-01-17T10:16:07.685Z,98213.03
2023-01-17T10:19:05.999Z,98204.91
2023-01-17T10:21:45.441Z,98217.09
2023-01-17T10:24:42.429Z,98216.06
2023-01-17T10:27:25.062Z,98209.19
2023-01-17T10:29:52.467Z,98191.66
2023-01-17T10:32:23.751Z,98188.44
2023-01-17T10:34:52.933Z,98199.63
2023-01-17T10:37:31.289Z,98202.28
2023-01-17T10:40:14.010Z,98211.81
2023-01-17T10:43:07.257Z,98223.75
2023-01-17T10:45:50.961Z,98220.34
2023-01-17T10:48:43.703Z,98211.56
2023-01-17T10:51:49.943Z,98211.50
2023-01-17T10:54:30.257Z,98217.91
2023-01-17T10:56:59.016Z,98218.41
2023-01-17T10:59:34.378Z,98209.16
2023-01-17T11:02:07.459Z,98203.53
2023-01-17T11:04:40.890Z,98204.59
2023-01-17T11:07:17.023Z,98196.25
2023-01-17T11:09:52.278Z,98191.34
2023-01-17T11:12:43.963Z,98184.34
2023-01-17T11:15:11.258Z,98201.25
2023-01-17T11:17:45.336Z,98193.31
2023-01-17T11:20:12.631Z,98199.19
2023-01-17T11:22:40.084Z,98185.53
2023-01-17T11:25:19.780Z,98197.69
2023-01-17T11:27:58.600Z,98198.66
2023-01-17T11:30:29.484Z,98186.88
2023-01-17T11:32:59.402Z,98185.44
2023-01-17T11:35:41.427Z,98193.56
2023-01-17T11:38:18.630Z,98178.22
2023-01-17T11:40:47.848Z,98171.34
2023-01-17T11:43:20.913Z,98173.50
2023-01-17T11:46:14.612Z,98162.41
2023-01-17T11:48:46.591Z,98163.97
2023-01-17T11:51:43.301Z,98166.69
2023-01-17T11:54:22.344Z,98153.41
2023-01-17T11:56:51.854Z,98144.47
2023-01-17T11:59:24.264Z,98144.31
2023-01-17T12:02:02.467Z,98130.63
2023-01-17T12:04:40.987Z,98119.56
2023-01-17T12:07:23.311Z,98109.66
2023-01-17T12:10:07.882Z,98102.19
2023-01-17T12:13:11.365Z,98100.97
2023-01-17T12:15:55.345Z,98098.03
2023-01-17T12:18:33.917Z,98095.31
2023-01-17T12:21:17.475Z,98089.06
2023-01-17T12:24:03.537Z,98091.69
2023-01-17T12:26:38.052Z,98066.38
2023-01-17T12:29:14.327Z,98058.50
2023-01-17T12:32:03.002Z,98052.03
2023-01-17T12:34:38.824Z,98038.84
2023-01-17T12:37:18.193Z,98026.44
2023-01-17T12:40:03.486Z,98020.88
2023-01-17T12:42:54.250Z,98007.44
2023-01-17T12:45:28.505Z,98016.69
2023-01-17T12:48:04.667Z,98007.63
2023-01-17T12:50:43.659Z,97996.59
2023-01-17T12:53:49.558Z,97997.75
2023-01-17T12:56:19.653Z,97989.97
2023-01-17T12:58:52.289Z,97974.22
2023-01-17T13:01:40.043Z,97971.59
2023-01-17T13:04:19.983Z,97964.84
2023-01-17T13:07:05.234Z,97954.13
2023-01-17T13:09:47.182Z,97949.84
2023-01-17T13:12:18.170Z,97941.94
2023-01-17T13:14:46.851Z,97937.25
2023-01-17T13:18:09.519Z,97939.41
2023-01-17T13:21:04.840Z,97937.53
2023-01-17T13:23:50.104Z,97938.56
2023-01-17T13:26:44.270Z,97932.81
2023-01-17T13:29:14.442Z,97932.66
2023-01-17T13:31:48.266Z,97928.22
2023-01-17T13:34:28.038Z,97921.31
2023-01-17T13:37:17.001Z,97916.75
2023-01-17T13:40:02.533Z,97898.16
2023-01-17T13:42:54.101Z,97909.25
2023-01-17T13:45:25.778Z,97901.78
2023-01-17T13:47:54.016Z,97902.63
2023-01-17T13:50:36.594Z,97899.31
2023-01-17T13:53:28.597Z,97893.25
2023-01-17T13:56:20.521Z,97897.34
2023-01-17T13:58:51.678Z,97888.47
2023-01-17T14:01:22.104Z,97882.91
2023-01-17T14:03:49.921Z,97871.94
2023-01-17T14:06:35.769Z,97869.06
2023-01-17T14:09:18.615Z,97857.63
2023-01-17T14:11:52.260Z,97858.06
2023-01-17T14:14:41.800Z,97847.72
2023-01-17T14:17:28.092Z,97841.34
2023-01-17T14:20:19.528Z,97833.75
2023-01-17T14:22:52.447Z,97820.44
2023-01-17T14:25:23.040Z,97820.81
2023-01-17T14:27:53.456Z,97825.91
2023-01-17T14:30:28.429Z,97834.50
2023-01-17T14:32:58.718Z,97843.19
2023-01-17T14:35:35.246Z,97849.22
2023-01-17T14:38:05.647Z,97852.22
2023-01-17T14:40:35.682Z,97868.88
2023-01-17T14:43:06.173Z,97863.38
2023-01-17T14:45:35.836Z,97866.72
2023-01-17T14:48:07.085Z,97861.09
2023-01-17T14:50:39.112Z,97862.38
2023-01-17T14:53:12.778Z,97877.03
2023-01-17T14:55:49.115Z,97882.91
2023-01-17T14:58:34.316Z,97889.97
2023-01-17T15:01:05.405Z,97896.97
2023-01-17T15:03:44.630Z,97900.56
2023-01-17T15:06:24.333Z,97903.38
2023-01-17T15:08:54.153Z,97901.50
2023-01-17T15:11:35.420Z,97904.31
2023-01-17T15:14:06.461Z,97896.66
2023-01-17T15:16:36.608Z,97894.16
2023-01-17T15:19:11.701Z,97890.91
2023-01-17T15:21:42.599Z,97885.41
2023-01-17T15:24:34.417Z,97895.34
2023-01-17T15:27:02.178Z,97892.16
2023-01-17T15:29:34.701Z,97897.81
2023-01-17T15:32:05.422Z,97895.72
2023-01-17T15:34:36.009Z,97896.03
2023-01-17T15:37:08.049Z,97896.22
2023-01-17T15:39:38.895Z,97908.38
2023-01-17T15:42:23.147Z,97899.34
2023-01-17T15:44:56.838Z,97906.50
2023-01-17T15:47:38.801Z,97920.38
2023-01-17T15:50:23.595Z,97918.06
2023-01-17T15:53:02.847Z,97917.91
2023-01-17T15:55:34.238Z,97915.09
2023-01-17T15:58:02.832Z,97903.69
2023-01-17T16:00:48.488Z,97903.38
2023-01-17T16:03:26.633Z,97920.47
2023-01-17T16:05:57.633Z,97929.03
2023-01-17T16:08:34.264Z,97934.81
2023-01-17T16:11:03.384Z,97941.88
2023-01-17T16:13:33.074Z,97948.50
2023-01-17T16:16:14.126Z,97949.13
2023-01-17T16:18:42.168Z,97960.38
2023-01-17T16:21:22.584Z,97948.19
2023-01-17T16:23:50.221Z,97959.88
2023-01-17T16:26:18.114Z,97969.56
2023-01-17T16:28:45.899Z,97971.88
2023-01-17T16:31:13.307Z,97964.91
2023-01-17T16:33:42.135Z,97962.63
2023-01-17T16:36:15.315Z,97964.38
2023-01-17T16:38:44.473Z,97982.06
2023-01-17T16:41:11.873Z,97990.38
2023-01-17T16:43:39.317Z,97996.84
2023-01-17T16:46:07.154Z,98002.19
2023-01-17T16:48:36.758Z,97996.28
2023-01-17T16:51:07.698Z,97997.59
2023-01-17T16:53:35.783Z,97988.44
2023-01-17T16:56:10.179Z,97993.88
2023-01-17T16:58:37.750Z,97992.88
2023-01-17T17:01:15.927Z,98002.69
2023-01-17T17:03:44.717Z,97997.53
2023-01-17T17:06:12.722Z,97994.41
2023-01-17T17:08:40.086Z,97999.47
2023-01-17T17:11:16.537Z,97996.75
2023-01-17T17:13:45.828Z,97992.72
2023-01-17T17:16:16.180Z,97982.44
2023-01-17T17:18:45.705Z,97980.69
2023-01-17T17:21:14.110Z,97979.88
2023-01-17T17:23:41.582Z,97981.66
2023-01-17T17:26:08.895Z,97993.88
2023-01-17T17:28:36.206Z,98001.34
2023-01-17T17:31:10.471Z,97994.28
2023-01-17T17:33:38.698Z,97998.16
2023-01-17T17:36:08.006Z,97988.69
2023-01-17T17:38:35.810Z,97986.50
2023-01-17T17:41:09.314Z,97976.56
2023-01-17T17:43:40.355Z,97979.44
2023-01-17T17:46:09.172Z,97976.72
2023-01-17T17:48:37.079Z,97986.63
2023-01-17T17:51:05.612Z,97995.50
2023-01-17T17:53:33.128Z,97995.72
2023-01-17T17:56:05.491Z,98011.19
2023-01-17T17:58:36.084Z,98014.59
2023-01-17T18:01:06.133Z,98017.13
2023-01-17T18:03:33.855Z,98019.84
2023-01-17T18:06:02.977Z,98024.88
2023-01-17T18:08:33.955Z,98035.81
2023-01-17T18:11:03.330Z,98041.09
2023-01-17T18:13:31.698Z,98036.06
2023-01-17T18:16:08.264Z,98043.97
2023-01-17T18:18:37.649Z,98033.88
2023-01-17T18:21:26.063Z,98032.97
2023-01-17T18:24:04.106Z,98017.72
2023-01-17T18:26:32.816Z,98028.28
2023-01-17T18:29:01.472Z,98026.94
2023-01-17T18:31:30.295Z,98023.47
2023-01-17T18:33:59.993Z,98024.84
2023-01-17T18:36:30.663Z,98010.59
2023-01-17T18:38:58.064Z,98021.84
2023-01-17T18:41:27.927Z,98025.94
2023-01-17T18:43:56.159Z,98033.78
2023-01-17T18:46:25.863Z,98043.34
2023-01-17T18:48:56.325Z,98040.94
2023-01-17T18:51:24.512Z,98050.75
2023-01-17T18:53:53.031Z,98048.47
2023-01-17T18:56:22.739Z,98040.00
2023-01-17T18:58:50.599Z,98046.81
2023-01-17T19:01:26.140Z,98060.56
2023-01-17T19:03:57.745Z,98050.31
2023-01-17T19:06:34.498Z,98043.94
2023-01-17T19:09:02.643Z,98033.22
2023-01-17T19:11:30.542Z,98059.28
2023-01-17T19:13:57.950Z,98048.28
2023-01-17T19:16:28.531Z,98064.13
2023-01-17T19:18:58.053Z,98059.16
2023-01-17T19:21:27.575Z,98053.94
2023-01-17T19:23:56.277Z,98062.94
2023-01-17T19:26:26.516Z,98044.94
2023-01-17T19:28:56.356Z,98053.06
2023-01-17T19:31:26.882Z,98043.59
2023-01-17T19:33:59.053Z,98044.66
2023-01-17T19:36:29.274Z,98047.03
2023-01-17T19:39:04.878Z,98046.16
2023-01-17T19:41:35.242Z,98054.09
2023-01-17T19:44:05.887Z,98040.13
2023-01-17T19:46:34.416Z,98038.13
2023-01-17T19:49:02.775Z,98038.94
2023-01-17T19:51:30.235Z,98048.38
2023-01-17T19:54:01.576Z,98028.56
2023-01-17T19:56:29.984Z,98024.16
2023-01-17T19:59:00.977Z,98022.66
2023-01-17T20:01:31.764Z,98039.69
2023-01-17T20:04:00.735Z,98026.59
2023-01-17T20:06:30.884Z,98026.72
2023-01-17T20:08:59.044Z,98033.78
2023-01-17T20:11:28.207Z,98029.06
2023-01-17T20:13:57.713Z,98032.13
2023-01-17T20:16:27.746Z,98033.56
2023-01-17T20:18:55.370Z,98016.59
2023-01-17T20:21:26.275Z,98018.38
2023-01-17T20:23:54.972Z,98007.69
2023-01-17T20:26:25.921Z,98022.25
2023-01-17T20:28:53.505Z,98018.72
2023-01-17T20:31:22.986Z,97996.91
2023-01-17T20:33:53.820Z,98006.59
2023-01-17T20:36:26.783Z,97997.56
2023-01-17T20:38:55.530Z,98002.19
2023-01-17T20:41:25.450Z,98005.47
2023-01-17T20:43:55.433Z,97984.06
2023-01-17T20:46:25.375Z,97991.00
2023-01-17T20:48:54.875Z,97987.38
2023-01-17T20:51:24.071Z,97988.72
2023-01-17T20:53:54.059Z,98001.41
2023-01-17T20:56:21.919Z,97999.53
2023-01-17T20:58:51.755Z,98008.41
2023-01-17T21:01:19.680Z,98009.41
2023-01-17T21:03:51.084Z,98004.25
2023-01-17T21:06:19.732Z,98008.97
2023-01-17T21:08:48.403Z,97997.69
2023-01-17T21:11:19.785Z,97997.59
2023-01-17T21:13:48.827Z,97993.66
2023-01-17T21:16:17.874Z,97984.22
2023-01-17T21:18:49.188Z,98005.69
2023-01-17T21:21:20.068Z,98007.19
2023-01-17T21:23:48.355Z,97997.75
2023-01-17T21:26:17.115Z,97996.13
2023-01-17T21:28:46.892Z,97994.19
2023-01-17T21:31:23.196Z,97989.63
2023-01-17T21:34:02.545Z,97994.06
2023-01-17T21:36:33.136Z,97997.69
2023-01-17T21:39:04.767Z,98001.50
2023-01-17T21:41:35.574Z,97991.72
2023-01-17T21:44:08.007Z,97980.91
2023-01-17T21:46:40.359Z,97975.44
2023-01-17T21:49:12.881Z,97969.47
2023-01-17T21:52:05.069Z,97974.13
2023-01-17T21:54:50.890Z,97980.91
2023-01-17T21:57:41.021Z,97983.81
2023-01-17T22:00:14.448Z,97981.59
2023-01-17T22:02:47.232Z,97986.38
2023-01-17T22:05:16.472Z,97996.84
2023-01-17T22:08:10.348Z,98001.00
2023-01-17T22:10:44.563Z,97999.56
2023-01-17T22:13:17.155Z,97994.94
2023-01-17T22:15:45.451Z,98001.84
2023-01-17T22:18:13.817Z,97995.81
2023-01-17T22:20:42.422Z,98006.91
2023-01-17T22:23:10.310Z,98006.06
2023-01-17T22:25:37.750Z,98012.56
2023-01-17T22:28:05.158Z,98012.75
2023-01-17T22:30:32.509Z,98015.63
2023-01-17T22:33:03.159Z,98029.09
2023-01-17T22:35:30.655Z,98014.03
2023-01-17T22:37:58.135Z,98032.06
2023-01-17T22:40:26.223Z,98029.31
2023-01-17T22:42:53.985Z,98026.72
2023-01-17T22:45:21.391Z,98029.59
2023-01-17T22:47:48.770Z,98024.03
2023-01-17T22:50:16.309Z,98039.72
2023-01-17T22:52:43.598Z,98027.44
2023-01-17T22:55:12.180Z,98033.84
2023-01-17T22:57:39.753Z,98024.91
2023-01-17T23:00:14.633Z,98033.50
2023-01-17T23:02:42.732Z,98030.44
2023-01-17T23:05:10.696Z,98033.59
2023-01-17T23:07:43.818Z,98032.84
2023-01-17T23:10:13.538Z,98016.91
2023-01-17T23:12:41.014Z,98024.75
2023-01-17T23:15:27.157Z,98020.31
2023-01-17T23:18:13.130Z,98010.69
2023-01-17T23:20:40.635Z,98014.53
2023-01-17T23:23:08.023Z,98007.91
2023-01-17T23:25:35.362Z,98012.75
2023-01-17T23:28:12.222Z,98004.06
2023-01-17T23:30:43.054Z,97995.81
2023-01-17T23:33:15.224Z,98003.91
2023-01-17T23:35:45.172Z,97993.44
2023-01-17T23:38:26.282Z,97999.06
2023-01-17T23:41:12.598Z,98007.13
2023-01-17T23:43:40.008Z,98017.34
2023-01-17T23:46:12.140Z,98028.66
2023-01-17T23:48:39.798Z,98032.91
2023-01-17T23:51:08.221Z,98010.03
2023-01-17T23:53:39.918Z,98026.22
2023-01-17T23:56:14.090Z,98021.94
2023-01-17T23:58:41.633Z,98023.56
